Time;durP1;ratioP1;P1;durP2;ratioP2;P2;SDS_P1;SDS_P2;PMS_P1;PMS_P2;Temp;Humidity;BMP_temperature;BMP_pressure;BME280_temperature;BME280_humidity;BME280_pressure;Samples;Min_cycle;Max_cycle;Signal;HPM_P1;HPM_P2
2022/01/13 00:00:17;;;;;;;6.68;3.70;;;;;;;2.01;94.48;102069.03;5054735;28;20057;-47
2022/01/13 00:02:45;;;;;;;8.07;3.88;;;;;;;2.03;93.97;102052.09;5059305;28;20410;-46
2022/01/13 00:05:12;;;;;;;7.80;3.80;;;;;;;2.05;94.21;102065.81;5060198;28;20429;-47
2022/01/13 00:07:40;;;;;;;9.35;4.20;;;;;;;2.05;94.01;102068.38;5057734;28;20698;-46
2022/01/13 00:10:09;;;;;;;9.10;3.97;;;;;;;2.07;94.57;102059.97;5054889;28;20072;-49
2022/01/13 00:12:40;;;;;;;10.07;4.75;;;;;;;2.08;94.55;102050.63;5060668;28;20044;-47
2022/01/13 00:15:24;;;;;;;10.27;4.72;;;;;;;2.08;94.65;102065.97;5055618;28;20052;-46
2022/01/13 00:18:08;;;;;;;8.57;4.13;;;;;;;2.10;94.33;102061.84;5057174;28;20046;-48
2022/01/13 00:23:43;;;;;;;8.50;4.47;;;;;;;2.12;94.41;102071.34;5062361;28;20842;-48
2022/01/13 00:26:18;;;;;;;7.13;4.10;;;;;;;2.15;94.81;102088.50;5058372;28;20106;-46
2022/01/13 00:28:48;;;;;;;8.67;3.53;;;;;;;2.15;94.32;102088.50;5055833;28;20056;-46
2022/01/13 00:31:17;;;;;;;6.15;3.25;;;;;;;2.18;94.54;102098.88;5055808;28;20048;-46
2022/01/13 00:33:46;;;;;;;6.40;3.42;;;;;;;2.20;94.84;102098.16;5055584;28;20060;-46
2022/01/13 00:36:14;;;;;;;9.05;3.95;;;;;;;2.22;94.76;102096.53;5056461;28;20056;-46
2022/01/13 00:38:43;;;;;;;6.55;3.67;;;;;;;2.25;94.80;102100.03;5059654;28;20057;-46
2022/01/13 00:41:10;;;;;;;5.95;3.10;;;;;;;2.26;94.30;102102.69;5058884;28;20044;-49
2022/01/13 00:43:40;;;;;;;6.32;3.60;;;;;;;2.26;94.39;102100.13;5055118;28;20417;-47
2022/01/13 00:46:08;;;;;;;7.15;3.67;;;;;;;2.28;94.92;102095.06;5055458;28;20679;-47
2022/01/13 00:48:36;;;;;;;7.32;2.97;;;;;;;2.28;94.30;102090.84;5057219;28;20099;-45
2022/01/13 00:51:03;;;;;;;7.25;3.50;;;;;;;2.29;94.81;102097.69;5054567;28;20535;-47
2022/01/13 00:53:30;;;;;;;6.60;3.20;;;;;;;2.28;94.98;102100.19;5062703;28;20405;-46
2022/01/13 00:56:02;;;;;;;7.38;3.60;;;;;;;2.30;94.31;102089.22;5060128;28;20560;-46
2022/01/13 00:58:31;;;;;;;5.47;2.92;;;;;;;2.31;95.07;102075.63;5060475;28;20045;-47
2022/01/13 01:01:00;;;;;;;6.63;2.80;;;;;;;2.35;95.09;102076.63;5062949;28;20055;-47
2022/01/13 01:03:28;;;;;;;6.45;2.80;;;;;;;2.38;94.78;102061.41;5060234;28;20047;-48
2022/01/13 01:05:57;;;;;;;5.88;3.03;;;;;;;2.37;95.28;102050.31;5059250;28;20049;-46
2022/01/13 01:08:25;;;;;;;7.18;3.17;;;;;;;2.36;95.42;102033.19;5058784;28;20057;-46
2022/01/13 01:10:54;;;;;;;5.65;2.80;;;;;;;2.36;95.58;102022.97;5061572;28;20056;-48
2022/01/13 01:13:29;;;;;;;5.25;2.85;;;;;;;2.36;95.53;102005.06;5060745;28;20053;-47
2022/01/13 01:15:59;;;;;;;5.85;3.00;;;;;;;2.39;95.27;102015.44;5057963;28;20488;-46
2022/01/13 01:18:33;;;;;;;6.88;2.88;;;;;;;2.40;94.99;101999.25;5065120;28;20106;-46
2022/01/13 01:21:30;;;;;;;4.97;2.42;;;;;;;2.41;94.61;101993.34;5058984;28;20078;-46
2022/01/13 01:24:14;;;;;;;3.63;1.90;;;;;;;2.44;94.14;101996.03;5061897;28;20135;-47
2022/01/13 01:26:44;;;;;;;4.97;2.00;;;;;;;2.47;93.95;102000.41;5061108;28;20477;-46
2022/01/13 01:29:21;;;;;;;4.63;1.80;;;;;;;2.48;93.76;101990.25;5061772;28;20482;-47
2022/01/13 01:31:51;;;;;;;2.67;1.58;;;;;;;2.49;93.27;101978.31;5062666;28;20137;-47
2022/01/13 01:34:34;;;;;;;3.85;1.85;;;;;;;2.49;93.38;101979.19;5060523;28;20382;-46
2022/01/13 01:37:01;;;;;;;3.28;1.65;;;;;;;2.47;93.55;101965.44;5061705;28;20056;-47
2022/01/13 01:39:28;;;;;;;3.30;1.67;;;;;;;2.49;93.26;101961.28;5061300;28;20052;-46
2022/01/13 01:41:57;;;;;;;3.50;1.50;;;;;;;2.49;93.30;101958.72;5060559;28;20061;-45
2022/01/13 01:44:31;;;;;;;2.97;1.65;;;;;;;2.51;93.15;101930.63;5057596;28;20402;-45
2022/01/13 01:47:00;;;;;;;4.95;1.73;;;;;;;2.53;93.44;101926.44;5058026;28;20068;-45
2022/01/13 01:49:28;;;;;;;2.40;1.38;;;;;;;2.53;92.90;101917.09;5060966;28;20143;-46
2022/01/13 01:51:57;;;;;;;2.20;1.10;;;;;;;2.57;92.98;101920.66;5060682;28;20152;-46
2022/01/13 01:54:25;;;;;;;2.50;1.20;;;;;;;2.60;93.23;101925.03;5057971;28;20057;-46
2022/01/13 01:56:53;;;;;;;3.55;1.30;;;;;;;2.61;92.62;101908.88;5060093;28;20052;-47
2022/01/13 01:59:24;;;;;;;2.03;1.08;;;;;;;2.65;93.13;101913.31;5064161;28;20052;-47
2022/01/13 02:01:53;;;;;;;2.85;0.98;;;;;;;2.67;93.13;101898.91;5060299;28;20048;-47
2022/01/13 02:04:22;;;;;;;1.80;1.10;;;;;;;2.70;92.42;101906.72;5061875;28;20449;-48
2022/01/13 02:06:49;;;;;;;5.57;0.90;;;;;;;2.69;93.30;101900.72;5063735;28;20052;-46
2022/01/13 02:09:18;;;;;;;2.83;1.35;;;;;;;2.72;93.25;101912.78;5059066;28;20048;-46
2022/01/13 02:11:52;;;;;;;4.05;1.20;;;;;;;2.74;92.95;101893.22;5060994;28;21974;-46
2022/01/13 02:14:33;;;;;;;2.45;0.93;;;;;;;2.75;93.71;101879.63;5058415;28;20093;-46
2022/01/13 02:17:05;;;;;;;2.05;1.00;;;;;;;2.78;93.29;101893.41;5063102;28;20058;-47
2022/01/13 02:19:34;;;;;;;2.20;1.10;;;;;;;2.81;93.05;101885.00;5059347;28;20659;-45
2022/01/13 02:22:03;;;;;;;5.15;1.30;;;;;;;2.80;93.49;101873.88;5061223;28;20401;-46
2022/01/13 02:24:30;;;;;;;2.92;1.10;;;;;;;2.81;92.99;101850.00;5057370;28;20571;-48
2022/01/13 02:26:58;;;;;;;2.60;1.20;;;;;;;2.84;93.29;101854.38;5057277;28;20067;-46
2022/01/13 02:29:25;;;;;;;1.90;1.00;;;;;;;2.86;93.47;101842.50;5060653;28;20060;-46
2022/01/13 02:31:53;;;;;;;2.97;1.25;;;;;;;2.85;93.53;101804.91;5059663;28;20063;-48
2022/01/13 02:34:20;;;;;;;1.65;0.80;;;;;;;2.88;93.96;101794.78;5060381;28;20045;-47
2022/01/13 02:36:50;;;;;;;3.13;1.10;;;;;;;2.92;93.83;101827.38;5061289;28;20043;-48
2022/01/13 02:39:19;;;;;;;3.03;1.00;;;;;;;2.92;93.37;101812.03;5057270;28;20052;-47
2022/01/13 02:41:46;;;;;;;2.38;0.82;;;;;;;2.94;93.70;101828.31;5057908;28;20064;-47
2022/01/13 02:44:17;;;;;;;2.20;1.10;;;;;;;2.97;93.51;101807.94;5057260;28;20052;-46
2022/01/13 02:47:10;;;;;;;1.90;1.00;;;;;;;3.00;93.51;101833.69;5056897;28;20611;-47
2022/01/13 02:49:37;;;;;;;3.75;1.33;;;;;;;3.00;94.09;101837.94;5056422;28;20052;-46
2022/01/13 02:52:05;;;;;;;1.77;0.90;;;;;;;3.01;94.28;101832.00;5059516;28;20048;-46
2022/01/13 02:54:34;;;;;;;3.63;1.38;;;;;;;3.04;93.63;101835.56;5059211;28;20044;-47
2022/01/13 02:57:01;;;;;;;3.13;1.38;;;;;;;3.03;93.63;101831.25;5059872;28;20087;-47
2022/01/13 02:59:28;;;;;;;2.28;1.10;;;;;;;3.04;93.71;101820.19;5063578;28;20048;-46
2022/01/13 03:01:55;;;;;;;2.30;1.02;;;;;;;3.04;94.63;101809.94;5060288;28;20052;-47
2022/01/13 03:04:24;;;;;;;3.03;1.20;;;;;;;3.08;94.44;101822.06;5057444;28;20930;-47
2022/01/13 03:06:51;;;;;;;3.10;1.83;;;;;;;3.12;94.61;101825.59;5057208;28;20052;-46
2022/01/13 03:09:20;;;;;;;2.28;1.00;;;;;;;3.14;94.56;101829.13;5060688;28;20056;-46
2022/01/13 03:11:50;;;;;;;1.70;1.10;;;;;;;3.16;94.28;101838.63;5060773;28;20433;-48
2022/01/13 03:14:17;;;;;;;2.60;1.20;;;;;;;3.20;94.42;101814.00;5058818;28;20098;-49
2022/01/13 03:16:46;;;;;;;3.90;1.35;;;;;;;3.20;94.52;101824.25;5058456;28;20785;-48
2022/01/13 03:19:13;;;;;;;2.47;1.20;;;;;;;3.21;94.48;101795.25;5055811;28;20064;-47
2022/01/13 03:21:41;;;;;;;3.05;1.40;;;;;;;3.26;94.52;101796.28;5057761;28;20052;-47
2022/01/13 03:24:11;;;;;;;2.90;1.20;;;;;;;3.31;94.26;101796.47;5057236;28;20071;-47
2022/01/13 03:26:38;;;;;;;2.40;1.10;;;;;;;3.33;94.27;101774.31;5057997;28;20125;-48
2022/01/13 03:29:18;;;;;;;2.03;1.05;;;;;;;3.37;94.35;101781.31;5057771;28;20060;-46
2022/01/13 03:31:46;;;;;;;3.40;1.38;;;;;;;3.42;94.58;101792.59;5057276;28;20139;-46
2022/01/13 03:34:14;;;;;;;2.05;1.27;;;;;;;3.44;93.79;101780.72;5059821;28;20063;-46
2022/01/13 03:36:41;;;;;;;3.35;1.48;;;;;;;3.47;93.55;101773.16;5058006;28;20056;-46
2022/01/13 03:39:10;;;;;;;3.80;1.52;;;;;;;3.51;93.85;101785.25;5056367;28;20048;-45
2022/01/13 03:41:39;;;;;;;3.45;1.17;;;;;;;3.52;94.19;101769.06;5056432;28;20060;-47
2022/01/13 03:44:17;;;;;;;2.45;0.95;;;;;;;3.51;94.31;101774.13;5059625;28;20044;-45
2022/01/13 03:46:45;;;;;;;2.90;1.08;;;;;;;3.52;94.23;101720.34;5055835;28;20048;-46
2022/01/13 03:49:12;;;;;;;2.88;0.90;;;;;;;3.55;94.13;101764.03;5059570;28;20052;-47
2022/01/13 03:52:27;;;;;;;3.25;0.98;;;;;;;3.57;93.88;101759.84;5056434;28;20056;-46
2022/01/13 03:55:30;;;;;;;2.22;1.02;;;;;;;3.58;93.75;101746.22;5055200;28;20048;-48
2022/01/13 03:58:54;;;;;;;2.85;1.20;;;;;;;3.63;93.96;101766.88;5041760;28;20052;-47
2022/01/13 04:01:59;;;;;;;2.80;1.20;;;;;;;3.66;94.23;101760.19;5055687;28;20508;-51
2022/01/13 04:04:26;;;;;;;2.05;1.13;;;;;;;3.70;93.98;101746.66;5058705;28;20052;-47
2022/01/13 04:07:06;;;;;;;2.40;1.05;;;;;;;3.73;93.91;101757.03;5054999;28;20053;-46
2022/01/13 04:10:12;;;;;;;2.35;0.93;;;;;;;3.74;94.28;101756.22;5054916;28;20057;-46
2022/01/13 04:12:39;;;;;;;2.00;1.10;;;;;;;3.78;93.87;101759.75;5033960;28;20044;-46
2022/01/13 04:15:12;;;;;;;3.63;1.23;;;;;;;3.79;94.29;101767.50;5055530;28;20052;-49
2022/01/13 04:17:40;;;;;;;2.80;1.10;;;;;;;3.85;94.26;101756.59;5057344;28;20144;-46
2022/01/13 04:20:09;;;;;;;3.00;0.95;;;;;;;3.88;93.67;101750.69;5060243;28;20040;-46
2022/01/13 04:22:37;;;;;;;2.13;1.17;;;;;;;3.89;93.70;101747.31;5060623;28;20052;-46
2022/01/13 04:25:06;;;;;;;4.05;1.30;;;;;;;3.91;94.15;101722.59;5056510;28;20053;-46
2022/01/13 04:27:38;;;;;;;1.58;1.00;;;;;;;3.92;93.60;101732.91;5054641;28;20044;-49
2022/01/13 04:30:34;;;;;;;2.70;1.20;;;;;;;3.93;93.79;101719.25;5056791;28;20056;-48
2022/01/13 04:33:04;;;;;;;3.17;1.33;;;;;;;3.95;94.19;101701.34;5058674;28;20121;-46
2022/01/13 04:35:32;;;;;;;2.90;1.38;;;;;;;3.97;94.40;101704.84;5067843;28;20045;-48
2022/01/13 04:37:59;;;;;;;3.63;1.10;;;;;;;3.99;93.49;101703.19;5062917;28;20063;-47
2022/01/13 04:40:27;;;;;;;2.25;1.20;;;;;;;4.00;94.29;101710.06;5062042;28;20053;-46
2022/01/13 04:42:56;;;;;;;2.97;1.30;;;;;;;4.02;94.30;101680.19;5062230;28;20190;-47
2022/01/13 04:45:27;;;;;;;2.50;1.10;;;;;;;4.01;94.22;101668.19;5066111;28;20385;-45
2022/01/13 04:47:56;;;;;;;3.35;1.20;;;;;;;4.01;93.61;101652.81;5062805;28;20052;-50
2022/01/13 04:50:25;;;;;;;2.65;1.17;;;;;;;4.02;94.07;101623.75;5060004;28;20056;-47
2022/01/13 04:52:53;;;;;;;3.38;1.30;;;;;;;4.04;93.93;101652.91;5053517;28;20071;-48
2022/01/13 04:55:25;;;;;;;3.70;2.03;;;;;;;4.04;93.92;101655.47;5064375;28;20166;-47
2022/01/13 04:57:54;;;;;;;3.38;1.40;;;;;;;4.06;93.79;101643.56;5057639;28;20056;-46
2022/01/13 05:00:22;;;;;;;2.83;1.40;;;;;;;4.06;94.42;101643.56;5060134;28;20052;-45
2022/01/13 05:02:49;;;;;;;2.63;1.45;;;;;;;4.07;94.10;101632.47;5061423;28;20113;-46
2022/01/13 05:05:16;;;;;;;2.33;1.25;;;;;;;4.09;93.98;101618.00;5061794;28;20052;-46
2022/01/13 05:07:45;;;;;;;3.15;1.58;;;;;;;4.10;94.28;101635.13;5061415;28;20397;-50
2022/01/13 05:10:12;;;;;;;2.67;1.15;;;;;;;4.11;94.51;101642.00;5061327;28;20541;-46
2022/01/13 05:12:42;;;;;;;3.90;1.75;;;;;;;4.13;94.58;101637.81;5063978;28;20052;-45
2022/01/13 05:15:15;;;;;;;4.55;2.20;;;;;;;4.16;94.33;101655.00;5059742;28;20044;-47
2022/01/13 05:18:06;;;;;;;4.85;1.88;;;;;;;4.17;94.79;101649.94;5058467;28;20066;-46
2022/01/13 05:20:47;;;;;;;5.40;1.80;;;;;;;4.18;94.44;101649.13;5065514;28;20060;-48
2022/01/13 05:23:17;;;;;;;3.67;1.80;;;;;;;4.20;94.76;101636.34;5060660;28;20125;-46
2022/01/13 05:25:45;;;;;;;6.95;2.33;;;;;;;4.22;94.32;101645.81;5060090;28;20553;-46
2022/01/13 05:28:12;;;;;;;4.43;2.55;;;;;;;4.26;94.67;101652.78;5056757;28;20140;-45
2022/01/13 05:30:39;;;;;;;4.30;2.20;;;;;;;4.28;94.04;101638.31;5062403;28;20430;-47
2022/01/13 05:33:07;;;;;;;5.60;2.70;;;;;;;4.30;94.61;101644.38;5059564;28;20707;-47
2022/01/13 05:35:36;;;;;;;7.03;2.30;;;;;;;4.32;94.22;101611.91;5059280;28;20048;-47
2022/01/13 05:38:04;;;;;;;4.47;1.92;;;;;;;4.34;94.11;101622.22;5061772;28;20789;-47
2022/01/13 05:40:33;;;;;;;4.90;2.35;;;;;;;4.35;94.13;101612.00;5057240;28;20064;-45
2022/01/13 05:43:00;;;;;;;4.20;2.10;;;;;;;4.35;93.68;101617.13;5056957;28;20052;-46
2022/01/13 05:45:30;;;;;;;3.85;1.77;;;;;;;4.36;93.62;101597.47;5058457;28;20048;-47
2022/01/13 05:47:59;;;;;;;4.45;2.00;;;;;;;4.38;93.32;101599.25;5061532;28;20059;-47
2022/01/13 05:50:27;;;;;;;4.30;2.17;;;;;;;4.35;93.22;101576.06;5060134;28;20416;-45
2022/01/13 05:52:55;;;;;;;3.58;1.73;;;;;;;4.37;93.29;101578.69;5061476;28;20119;-47
2022/01/13 05:55:22;;;;;;;3.80;1.80;;;;;;;4.37;93.65;101571.84;5061441;28;20436;-45
2022/01/13 05:57:51;;;;;;;5.75;2.00;;;;;;;4.43;93.48;101581.44;5057547;28;20055;-45
2022/01/13 06:00:20;;;;;;;4.20;2.00;;;;;;;4.43;93.58;101586.56;5064235;28;20059;-46
2022/01/13 06:02:48;;;;;;;5.28;2.38;;;;;;;4.46;93.28;101596.06;5056405;28;20462;-46
2022/01/13 06:05:16;;;;;;;5.00;1.98;;;;;;;4.47;93.25;101592.66;5061205;28;20056;-46
2022/01/13 06:07:43;;;;;;;3.53;1.55;;;;;;;4.47;93.00;101596.09;5060748;28;20044;-46
2022/01/13 06:10:14;;;;;;;6.65;2.75;;;;;;;4.51;93.21;101602.19;5062789;28;20053;-46
2022/01/13 06:12:41;;;;;;;7.38;2.30;;;;;;;4.53;92.73;101621.09;5063729;28;20056;-48
2022/01/13 06:15:12;;;;;;;4.40;2.03;;;;;;;4.54;92.92;101633.09;5057769;28;20040;-47
2022/01/13 06:17:41;;;;;;;5.30;1.95;;;;;;;4.54;92.53;101630.53;5061358;28;20059;-46
2022/01/13 06:20:10;;;;;;;5.03;2.13;;;;;;;4.55;92.86;101651.13;5058576;28;20516;-47
2022/01/13 06:22:39;;;;;;;3.90;1.80;;;;;;;4.58;92.65;101666.63;5061553;28;21790;-46
2022/01/13 06:25:10;;;;;;;4.68;1.98;;;;;;;4.60;92.51;101684.66;5058851;28;20053;-45
2022/01/13 06:27:37;;;;;;;3.38;1.77;;;;;;;4.62;92.48;101670.16;5061567;28;20059;-48
2022/01/13 06:30:06;;;;;;;3.90;1.90;;;;;;;4.63;92.79;101677.03;5061133;28;20048;-46
2022/01/13 06:32:35;;;;;;;3.53;1.70;;;;;;;4.63;92.70;101679.59;5057528;28;20059;-47
2022/01/13 06:35:02;;;;;;;5.32;2.30;;;;;;;4.61;92.24;101687.25;5059398;28;20048;-45
2022/01/13 06:37:29;;;;;;;4.53;1.85;;;;;;;4.64;92.40;101683.91;5056912;28;20048;-47
2022/01/13 06:39:57;;;;;;;4.93;2.50;;;;;;;4.66;92.37;101701.09;5059169;28;20045;-47
2022/01/13 06:42:24;;;;;;;4.22;2.15;;;;;;;4.66;92.78;101692.53;5061005;28;20048;-48
2022/01/13 06:44:51;;;;;;;4.07;1.80;;;;;;;4.67;92.43;101713.13;5057002;28;20048;-46
2022/01/13 06:47:18;;;;;;;3.88;2.13;;;;;;;4.68;92.63;101734.53;5056451;28;20052;-47
2022/01/13 06:49:47;;;;;;;4.95;1.75;;;;;;;4.68;92.71;101735.44;5057482;28;20868;-46
2022/01/13 06:52:14;;;;;;;4.53;1.80;;;;;;;4.70;92.92;101723.53;5059712;28;20052;-49
2022/01/13 06:54:41;;;;;;;4.07;1.75;;;;;;;4.70;92.58;101722.66;5063200;28;20048;-46
2022/01/13 06:57:08;;;;;;;3.53;1.50;;;;;;;4.69;93.11;101726.06;5062730;28;20052;-45
2022/01/13 06:59:36;;;;;;;2.65;1.75;;;;;;;4.69;93.01;101731.19;5059779;28;20422;-46
2022/01/13 07:02:03;;;;;;;4.18;1.42;;;;;;;4.69;93.06;101726.91;5056734;28;20056;-46
2022/01/13 07:04:30;;;;;;;2.95;1.30;;;;;;;4.69;93.06;101726.06;5055596;28;20058;-46
2022/01/13 07:06:59;;;;;;;3.85;1.70;;;;;;;4.71;93.13;101756.09;5056681;28;20044;-45
2022/01/13 07:09:26;;;;;;;3.90;1.75;;;;;;;4.71;93.15;101760.34;5065731;28;20410;-45
2022/01/13 07:11:53;;;;;;;2.85;1.38;;;;;;;4.72;93.65;101757.84;5059082;28;20060;-47
2022/01/13 07:14:20;;;;;;;3.25;1.40;;;;;;;4.74;93.13;101727.94;5053241;28;21260;-45
2022/01/13 07:16:48;;;;;;;3.17;1.38;;;;;;;4.73;93.37;101749.31;5055615;28;20059;-45
2022/01/13 07:19:15;;;;;;;2.63;1.50;;;;;;;4.74;93.50;101747.63;5065173;28;20044;-47
2022/01/13 07:21:44;;;;;;;3.35;1.52;;;;;;;4.77;93.31;101728.84;5066610;28;20108;-44
2022/01/13 07:24:13;;;;;;;2.28;1.30;;;;;;;4.74;93.17;101742.47;5064141;28;20052;-48
2022/01/13 07:26:40;;;;;;;3.35;1.20;;;;;;;4.75;93.50;101757.06;5058704;28;20059;-46
2022/01/13 07:29:08;;;;;;;2.30;1.10;;;;;;;4.77;93.43;101750.28;5059468;28;20052;-46
2022/01/13 07:31:35;;;;;;;2.78;1.27;;;;;;;4.77;93.62;101729.72;5059120;28;20121;-46
2022/01/13 07:34:03;;;;;;;4.95;1.30;;;;;;;4.78;93.71;101728.91;5054680;28;20528;-46
2022/01/13 07:36:30;;;;;;;3.45;1.52;;;;;;;4.80;93.95;101723.81;5056076;28;20048;-46
2022/01/13 07:38:58;;;;;;;4.13;1.48;;;;;;;4.80;94.05;101729.81;5057778;28;20421;-46
2022/01/13 07:41:26;;;;;;;4.43;1.10;;;;;;;4.82;93.93;101730.75;5056689;28;20056;-45
2022/01/13 07:43:54;;;;;;;2.92;1.20;;;;;;;4.83;94.15;101729.03;5058180;28;20065;-47
2022/01/13 07:46:23;;;;;;;4.55;1.77;;;;;;;4.86;93.92;101730.00;5055971;28;20752;-46
2022/01/13 07:48:50;;;;;;;2.80;1.40;;;;;;;4.90;93.68;101715.56;5058274;28;20052;-49
2022/01/13 07:51:17;;;;;;;4.63;1.60;;;;;;;4.90;94.02;101711.28;5055497;28;20045;-46
2022/01/13 07:53:45;;;;;;;3.38;1.70;;;;;;;4.91;94.02;101723.31;5053980;28;20052;-47
2022/01/13 07:56:12;;;;;;;2.55;1.60;;;;;;;4.93;93.74;101726.78;5059336;28;20487;-46
2022/01/13 07:58:43;;;;;;;3.80;1.65;;;;;;;4.96;94.07;101720.88;5058277;28;20048;-45
2022/01/13 08:01:10;;;;;;;3.35;1.52;;;;;;;4.94;93.82;101725.97;5056316;28;20858;-44
2022/01/13 08:03:37;;;;;;;4.95;1.55;;;;;;;4.95;94.17;101738.00;5055298;28;20056;-45
2022/01/13 08:06:05;;;;;;;4.68;1.63;;;;;;;4.99;94.08;101724.41;5055328;28;20185;-48
2022/01/13 08:08:32;;;;;;;4.15;1.65;;;;;;;5.01;94.24;101729.59;5057567;28;20056;-45
2022/01/13 08:11:00;;;;;;;3.20;1.50;;;;;;;5.02;94.20;101724.50;5057729;28;20490;-46
2022/01/13 08:13:27;;;;;;;7.53;1.70;;;;;;;5.05;93.96;101719.44;5053747;28;20052;-45
2022/01/13 08:15:56;;;;;;;4.10;1.60;;;;;;;5.08;93.89;101698.97;5055711;28;20094;-45
2022/01/13 08:21:07;;;;;;;9.80;3.78;;;;;;;5.14;93.66;101703.41;5055100;28;20121;-46
2022/01/13 08:23:34;;;;;;;8.88;2.88;;;;;;;5.17;93.65;101687.22;5058014;28;20072;-45
2022/01/13 08:26:01;;;;;;;4.07;2.28;;;;;;;5.19;93.65;101706.13;5054833;28;20057;-46
2022/01/13 08:28:28;;;;;;;6.50;1.75;;;;;;;5.21;93.95;101701.94;5056960;28;20153;-45
2022/01/13 08:30:58;;;;;;;4.20;1.90;;;;;;;5.23;93.79;101695.13;5054926;28;20059;-47
2022/01/13 08:33:25;;;;;;;6.75;2.75;;;;;;;5.27;93.96;101681.53;5056417;28;20044;-46
2022/01/13 08:35:54;;;;;;;6.55;3.22;;;;;;;5.30;93.78;101679.06;5055378;28;20045;-46
2022/01/13 08:38:23;;;;;;;6.47;3.53;;;;;;;5.32;93.27;101685.97;5060206;28;20056;-46
2022/01/13 08:40:54;;;;;;;9.32;4.72;;;;;;;5.34;93.53;101673.16;5054448;28;20060;-47
2022/01/13 08:43:22;;;;;;;5.95;2.15;;;;;;;5.35;93.54;101680.91;5056213;28;20064;-45
2022/01/13 08:45:49;;;;;;;5.80;2.60;;;;;;;5.37;93.60;101683.53;5056440;28;20129;-45
2022/01/13 08:48:18;;;;;;;8.40;3.50;;;;;;;5.38;93.28;101675.00;5051939;28;20063;-49
2022/01/13 08:50:45;;;;;;;10.98;3.95;;;;;;;5.43;93.09;101686.28;5054483;28;20060;-49
2022/01/13 08:53:13;;;;;;;15.20;3.33;;;;;;;5.46;93.35;101688.06;5063579;28;20473;-53
2022/01/13 08:55:40;;;;;;;9.75;2.78;;;;;;;5.48;93.13;101674.41;5056772;28;20055;-45
2022/01/13 08:58:07;;;;;;;8.82;2.50;;;;;;;5.51;93.07;101686.47;5057538;28;20056;-48
2022/01/13 09:00:37;;;;;;;7.28;2.50;;;;;;;5.51;93.38;101679.63;5059449;28;20110;-46
2022/01/13 09:03:07;;;;;;;5.78;2.35;;;;;;;5.54;93.02;101690.00;5060196;28;20470;-47
2022/01/13 09:05:36;;;;;;;6.45;2.78;;;;;;;5.51;92.96;101695.06;5065145;28;20072;-48
2022/01/13 09:08:05;;;;;;;13.77;4.05;;;;;;;5.55;93.16;101694.31;5060734;28;20474;-48
2022/01/13 09:10:32;;;;;;;13.57;3.22;;;;;;;5.56;92.79;101696.06;5060029;28;20052;-48
2022/01/13 09:12:59;;;;;;;9.93;3.78;;;;;;;5.57;93.06;101677.22;5059333;28;21918;-47
2022/01/13 09:15:34;;;;;;;8.23;2.83;;;;;;;5.57;93.40;101687.50;5054941;28;20075;-55
2022/01/13 09:18:08;;;;;;;7.28;3.08;;;;;;;5.58;92.95;101694.41;5061356;28;20052;-55
2022/01/13 09:20:37;;;;;;;7.95;3.28;;;;;;;5.59;92.88;101685.84;5060746;28;20052;-50
2022/01/13 09:23:05;;;;;;;11.48;3.10;;;;;;;5.61;92.81;101697.06;5058280;28;20052;-50
2022/01/13 09:25:32;;;;;;;6.10;2.53;;;;;;;5.62;93.01;101664.50;5058377;28;20044;-47
2022/01/13 09:28:00;;;;;;;11.23;3.47;;;;;;;5.63;92.82;101690.25;5061357;28;20052;-54
2022/01/13 09:30:28;;;;;;;16.10;4.35;;;;;;;5.62;92.45;101680.78;5063463;28;20064;-47
2022/01/13 09:32:55;;;;;;;13.95;3.70;;;;;;;5.63;92.71;101667.09;5057606;28;20133;-49
2022/01/13 09:35:22;;;;;;;18.98;3.72;;;;;;;5.63;92.52;101641.38;5058802;28;20052;-49
2022/01/13 09:37:52;;;;;;;12.02;3.10;;;;;;;5.64;92.41;101668.84;5066853;28;20052;-48
2022/01/13 09:40:20;;;;;;;10.07;3.05;;;;;;;5.65;92.70;101652.56;5064230;28;20490;-52
2022/01/13 09:42:47;;;;;;;7.88;2.53;;;;;;;5.66;92.48;101656.88;5060591;28;20063;-53
2022/01/13 09:45:16;;;;;;;7.45;3.33;;;;;;;5.67;92.49;101650.91;5061560;28;20748;-49
2022/01/13 09:47:45;;;;;;;7.65;2.58;;;;;;;5.67;92.75;101648.34;5058672;28;20063;-57
2022/01/13 09:50:15;;;;;;;6.40;2.88;;;;;;;5.67;92.36;101637.19;5059568;28;20398;-57
2022/01/13 09:52:43;;;;;;;6.35;2.80;;;;;;;5.69;92.08;101638.97;5059692;28;20143;-48
2022/01/13 09:55:14;;;;;;;9.20;2.53;;;;;;;5.71;91.90;101626.13;5066487;28;20071;-53
2022/01/13 09:57:43;;;;;;;6.03;2.25;;;;;;;5.74;91.98;101633.09;5059075;28;20048;-51
2022/01/13 10:00:12;;;;;;;5.60;2.28;;;;;;;5.79;91.85;101627.22;5061767;28;20048;-50
2022/01/13 10:02:39;;;;;;;6.65;2.55;;;;;;;5.82;91.43;101627.31;5059680;28;20060;-48
2022/01/13 10:05:08;;;;;;;9.23;2.58;;;;;;;5.87;91.28;101617.13;5069502;28;20659;-56
2022/01/13 10:07:37;;;;;;;6.47;2.22;;;;;;;5.92;91.40;101628.44;5070458;28;20056;-51
2022/01/13 10:10:07;;;;;;;4.93;2.10;;;;;;;5.93;90.78;101615.59;5072768;28;20082;-57
2022/01/13 10:12:40;;;;;;;8.23;2.35;;;;;;;6.00;90.64;101621.78;5069584;28;20076;-53
2022/01/13 10:17:54;;;;;;;12.45;3.63;;;;;;;6.05;90.16;101609.00;5070592;28;20405;-55
2022/01/13 10:20:23;;;;;;;9.27;2.53;;;;;;;6.07;90.07;101636.53;5070271;28;20059;-53
2022/01/13 10:22:50;;;;;;;6.40;2.30;;;;;;;6.07;89.74;101615.94;5069988;28;20052;-55
2022/01/13 10:25:29;;;;;;;8.68;2.40;;;;;;;6.10;89.57;101638.31;5071695;28;20051;-55
2022/01/13 10:28:11;;;;;;;8.30;2.10;;;;;;;6.11;89.47;101640.91;5074030;28;20055;-54
2022/01/13 10:30:39;;;;;;;6.57;2.28;;;;;;;6.13;89.71;101623.81;5069877;28;20048;-54
2022/01/13 10:33:16;;;;;;;5.88;2.63;;;;;;;6.13;89.40;101639.25;5068998;28;20106;-54
2022/01/13 10:35:44;;;;;;;5.78;2.13;;;;;;;6.12;88.98;101626.34;5066703;28;20359;-56
2022/01/13 10:38:16;;;;;;;5.95;2.05;;;;;;;6.10;89.34;101605.72;5067154;28;20403;-50
2022/01/13 10:40:46;;;;;;;4.43;2.45;;;;;;;6.10;89.15;101608.28;5070514;28;20505;-52
2022/01/13 10:43:16;;;;;;;6.57;2.08;;;;;;;6.10;89.34;101618.59;5069596;28;20116;-54
2022/01/13 10:45:47;;;;;;;7.05;2.08;;;;;;;6.09;89.24;101605.66;5073264;28;20055;-56
2022/01/13 10:48:18;;;;;;;6.75;2.45;;;;;;;6.08;89.40;101619.38;5069055;28;20053;-53
2022/01/13 10:50:48;;;;;;;6.40;2.47;;;;;;;6.06;89.47;101597.88;5070374;28;20463;-49
2022/01/13 10:53:18;;;;;;;7.70;2.38;;;;;;;6.07;89.56;101592.75;5069772;28;20059;-48
2022/01/13 10:55:48;;;;;;;6.78;1.88;;;;;;;6.08;89.63;101597.09;5070134;28;20052;-53
2022/01/13 10:58:19;;;;;;;6.00;2.10;;;;;;;6.08;89.36;101597.09;5070592;28;20059;-51
2022/01/13 11:00:47;;;;;;;4.60;1.98;;;;;;;6.11;89.33;101597.16;5073571;28;20366;-48
2022/01/13 11:03:17;;;;;;;9.23;2.38;;;;;;;6.14;89.42;101593.78;5072730;28;20048;-56
2022/01/13 11:05:49;;;;;;;9.13;2.45;;;;;;;6.16;89.29;101592.97;5070328;28;20059;-56
2022/01/13 11:08:25;;;;;;;8.18;1.90;;;;;;;6.20;88.93;101601.63;5066069;28;20044;-54
2022/01/13 11:10:54;;;;;;;5.45;1.60;;;;;;;6.16;88.56;101605.84;5067303;28;20095;-51
2022/01/13 11:13:27;;;;;;;13.25;2.35;;;;;;;6.21;88.70;101606.81;5068933;28;20482;-55
2022/01/13 11:15:55;;;;;;;9.10;2.85;;;;;;;6.22;88.97;101608.56;5074708;28;20056;-55
2022/01/13 11:18:25;;;;;;;11.13;3.30;;;;;;;6.22;88.98;101618.00;5069718;28;20227;-51
2022/01/13 11:20:52;;;;;;;9.77;2.85;;;;;;;6.20;88.82;101599.06;5075435;28;20045;-48
2022/01/13 11:23:20;;;;;;;5.55;2.00;;;;;;;6.17;88.96;101589.56;5071363;28;20087;-47
2022/01/13 11:25:56;;;;;;;7.03;2.40;;;;;;;6.14;89.03;101604.94;5069754;28;20075;-53
2022/01/13 11:28:25;;;;;;;5.85;2.50;;;;;;;6.16;89.22;101587.81;5067864;28;20049;-53
2022/01/13 11:30:53;;;;;;;10.57;2.70;;;;;;;6.15;88.91;101591.25;5069863;28;20044;-54
2022/01/13 11:33:22;;;;;;;7.35;2.20;;;;;;;6.15;89.32;101600.66;5069318;28;20052;-54
2022/01/13 11:35:55;;;;;;;6.15;2.03;;;;;;;6.17;89.66;101606.72;5070402;28;20044;-53
2022/01/13 11:38:23;;;;;;;8.10;2.42;;;;;;;6.15;89.49;101596.38;5069218;28;20477;-53
2022/01/13 11:40:53;;;;;;;9.32;2.30;;;;;;;6.17;89.77;101588.69;5068567;28;20123;-51
2022/01/13 11:43:40;;;;;;;8.48;2.28;;;;;;;6.16;89.46;101579.25;5063594;28;20040;-49
2022/01/13 11:46:18;;;;;;;6.10;2.13;;;;;;;6.14;89.63;101575.75;5065275;28;20131;-49
2022/01/13 11:48:59;;;;;;;13.80;3.47;;;;;;;6.12;89.67;101575.72;5070281;28;20109;-48
2022/01/13 11:51:40;;;;;;;11.63;3.17;;;;;;;6.10;89.76;101567.09;5069440;28;20044;-48
2022/01/13 11:54:09;;;;;;;10.82;3.47;;;;;;;6.08;89.62;101552.44;5073687;28;20102;-47